METAR Data
IDs: Format: Raw Decoded Include TAF

Data at: 0703 UTC 01 Aug 2021

EHRD 010655Z AUTO 21008KT 7000 +DZ FEW008 FEW015CB 17/16 Q1008 TEMPO 4000 SHRA